sensor_id;sensor_type;location;lat;lon;timestamp;pressure;altitude;pressure_sealevel;temperature;humidity
7668;BME280;3876;42.204;24.686;2023-07-31T00:00:14;98806.00;;;26.72;49.12
7668;BME280;3876;42.204;24.686;2023-07-31T00:02:41;98809.75;;;26.69;49.39
7668;BME280;3876;42.204;24.686;2023-07-31T00:05:08;98814.03;;;26.62;49.61
7668;BME280;3876;42.204;24.686;2023-07-31T00:07:35;98820.91;;;26.55;49.85
7668;BME280;3876;42.204;24.686;2023-07-31T00:10:03;98818.09;;;26.48;50.53
7668;BME280;3876;42.204;24.686;2023-07-31T00:12:30;98813.50;;;26.42;51.49
7668;BME280;3876;42.204;24.686;2023-07-31T00:14:58;98814.63;;;26.40;51.42
7668;BME280;3876;42.204;24.686;2023-07-31T00:17:24;98815.94;;;26.36;51.05
7668;BME280;3876;42.204;24.686;2023-07-31T00:19:51;98823.31;;;26.32;51.37
7668;BME280;3876;42.204;24.686;2023-07-31T00:22:18;98824.97;;;26.33;51.65
7668;BME280;3876;42.204;24.686;2023-07-31T00:24:45;98837.13;;;26.34;51.53
7668;BME280;3876;42.204;24.686;2023-07-31T00:27:13;98830.72;;;26.37;52.19
7668;BME280;3876;42.204;24.686;2023-07-31T00:29:40;98831.06;;;26.42;51.91
7668;BME280;3876;42.204;24.686;2023-07-31T00:32:07;98820.84;;;26.31;52.57
7668;BME280;3876;42.204;24.686;2023-07-31T00:34:34;98829.69;;;26.22;52.68
7668;BME280;3876;42.204;24.686;2023-07-31T00:37:00;98822.72;;;26.13;52.72
7668;BME280;3876;42.204;24.686;2023-07-31T00:39:27;98818.09;;;26.06;53.26
7668;BME280;3876;42.204;24.686;2023-07-31T00:41:54;98810.50;;;25.95;53.68
7668;BME280;3876;42.204;24.686;2023-07-31T00:44:22;98826.25;;;25.95;53.96
7668;BME280;3876;42.204;24.686;2023-07-31T00:46:49;98814.31;;;25.75;55.08
7668;BME280;3876;42.204;24.686;2023-07-31T00:49:16;98815.38;;;25.56;55.63
7668;BME280;3876;42.204;24.686;2023-07-31T00:51:42;98827.91;;;25.45;55.94
7668;BME280;3876;42.204;24.686;2023-07-31T00:54:09;98822.69;;;25.27;56.53
7668;BME280;3876;42.204;24.686;2023-07-31T00:56:37;98821.97;;;25.17;56.40
7668;BME280;3876;42.204;24.686;2023-07-31T00:59:04;98819.19;;;25.19;56.24
7668;BME280;3876;42.204;24.686;2023-07-31T01:01:32;98825.09;;;25.21;56.84
7668;BME280;3876;42.204;24.686;2023-07-31T01:03:59;98827.69;;;25.13;56.69
7668;BME280;3876;42.204;24.686;2023-07-31T01:06:42;98842.69;;;25.02;57.04
7668;BME280;3876;42.204;24.686;2023-07-31T01:09:24;98845.00;;;24.88;57.60
7668;BME280;3876;42.204;24.686;2023-07-31T01:11:57;98812.09;;;24.58;57.95
7668;BME280;3876;42.204;24.686;2023-07-31T01:14:25;98835.13;;;24.72;58.11
7668;BME280;3876;42.204;24.686;2023-07-31T01:16:53;98839.41;;;24.73;57.95
7668;BME280;3876;42.204;24.686;2023-07-31T01:19:22;98844.66;;;24.73;58.31
7668;BME280;3876;42.204;24.686;2023-07-31T01:22:04;98841.81;;;24.67;58.79
7668;BME280;3876;42.204;24.686;2023-07-31T01:24:42;98852.22;;;24.76;58.58
7668;BME280;3876;42.204;24.686;2023-07-31T01:27:16;98846.97;;;24.76;58.19
7668;BME280;3876;42.204;24.686;2023-07-31T01:29:50;98843.69;;;24.74;58.79
7668;BME280;3876;42.204;24.686;2023-07-31T01:32:21;98846.41;;;24.82;58.38
7668;BME280;3876;42.204;24.686;2023-07-31T01:34:49;98845.59;;;24.82;58.62
7668;BME280;3876;42.204;24.686;2023-07-31T01:37:17;98846.13;;;24.85;58.29
7668;BME280;3876;42.204;24.686;2023-07-31T01:39:44;98847.69;;;24.96;57.56
7668;BME280;3876;42.204;24.686;2023-07-31T01:42:10;98842.97;;;24.99;57.68
7668;BME280;3876;42.204;24.686;2023-07-31T01:44:39;98841.00;;;25.01;57.21
7668;BME280;3876;42.204;24.686;2023-07-31T01:47:06;98831.88;;;25.05;57.71
7668;BME280;3876;42.204;24.686;2023-07-31T01:49:32;98832.94;;;25.13;57.71
7668;BME280;3876;42.204;24.686;2023-07-31T01:51:59;98828.13;;;25.26;57.38
7668;BME280;3876;42.204;24.686;2023-07-31T01:54:26;98826.34;;;25.34;57.23
7668;BME280;3876;42.204;24.686;2023-07-31T01:56:52;98824.59;;;25.43;56.53
7668;BME280;3876;42.204;24.686;2023-07-31T01:59:19;98827.22;;;25.43;56.43
7668;BME280;3876;42.204;24.686;2023-07-31T02:01:47;98825.81;;;25.48;55.91
7668;BME280;3876;42.204;24.686;2023-07-31T02:04:14;98836.38;;;25.56;56.46
7668;BME280;3876;42.204;24.686;2023-07-31T02:06:41;98825.94;;;25.47;55.70
7668;BME280;3876;42.204;24.686;2023-07-31T02:09:07;98841.09;;;25.53;56.17
7668;BME280;3876;42.204;24.686;2023-07-31T02:11:34;98840.34;;;25.43;56.18
7668;BME280;3876;42.204;24.686;2023-07-31T02:14:01;98836.50;;;25.29;56.17
7668;BME280;3876;42.204;24.686;2023-07-31T02:16:28;98840.31;;;25.17;56.85
7668;BME280;3876;42.204;24.686;2023-07-31T02:18:56;98830.22;;;25.04;57.32
7668;BME280;3876;42.204;24.686;2023-07-31T02:21:23;98818.72;;;24.97;57.87
7668;BME280;3876;42.204;24.686;2023-07-31T02:23:48;98811.25;;;24.75;59.88
7668;BME280;3876;42.204;24.686;2023-07-31T02:26:15;98825.78;;;24.70;61.38
7668;BME280;3876;42.204;24.686;2023-07-31T02:28:42;98830.78;;;24.63;62.99
7668;BME280;3876;42.204;24.686;2023-07-31T02:31:09;98817.63;;;24.55;64.31
7668;BME280;3876;42.204;24.686;2023-07-31T02:33:35;98815.84;;;24.55;65.79
7668;BME280;3876;42.204;24.686;2023-07-31T02:36:04;98823.16;;;24.52;67.88
7668;BME280;3876;42.204;24.686;2023-07-31T02:38:31;98814.53;;;24.42;72.49
7668;BME280;3876;42.204;24.686;2023-07-31T02:40:57;98805.84;;;24.41;75.17
7668;BME280;3876;42.204;24.686;2023-07-31T02:43:24;98816.31;;;24.41;78.20
7668;BME280;3876;42.204;24.686;2023-07-31T02:45:51;98803.53;;;24.38;80.86
7668;BME280;3876;42.204;24.686;2023-07-31T02:48:19;98801.44;;;24.42;82.05
7668;BME280;3876;42.204;24.686;2023-07-31T02:50:47;98802.75;;;24.46;82.58
7668;BME280;3876;42.204;24.686;2023-07-31T02:53:15;98807.75;;;24.49;83.31
7668;BME280;3876;42.204;24.686;2023-07-31T02:55:42;98805.78;;;24.51;83.81
7668;BME280;3876;42.204;24.686;2023-07-31T02:58:08;98800.53;;;24.51;84.92
7668;BME280;3876;42.204;24.686;2023-07-31T03:00:35;98797.25;;;24.49;87.55
7668;BME280;3876;42.204;24.686;2023-07-31T03:03:02;98800.06;;;24.38;91.59
7668;BME280;3876;42.204;24.686;2023-07-31T03:05:29;98794.38;;;24.25;94.23
7668;BME280;3876;42.204;24.686;2023-07-31T03:07:55;98803.25;;;24.14;95.69
7668;BME280;3876;42.204;24.686;2023-07-31T03:10:23;98806.38;;;23.90;99.08
7668;BME280;3876;42.204;24.686;2023-07-31T03:12:50;98795.97;;;23.71;100.00
7668;BME280;3876;42.204;24.686;2023-07-31T03:15:17;98803.03;;;23.61;100.00
7668;BME280;3876;42.204;24.686;2023-07-31T03:17:44;98803.09;;;23.42;100.00
7668;BME280;3876;42.204;24.686;2023-07-31T03:20:11;98806.25;;;23.36;100.00
7668;BME280;3876;42.204;24.686;2023-07-31T03:22:37;98814.78;;;23.28;100.00
7668;BME280;3876;42.204;24.686;2023-07-31T03:25:05;98821.41;;;23.23;100.00
7668;BME280;3876;42.204;24.686;2023-07-31T03:27:37;98807.38;;;23.05;100.00
7668;BME280;3876;42.204;24.686;2023-07-31T03:30:04;98826.94;;;23.10;100.00
7668;BME280;3876;42.204;24.686;2023-07-31T03:32:31;98819.59;;;23.14;100.00
7668;BME280;3876;42.204;24.686;2023-07-31T03:34:58;98827.59;;;23.12;100.00
7668;BME280;3876;42.204;24.686;2023-07-31T03:37:25;98825.13;;;23.11;100.00
7668;BME280;3876;42.204;24.686;2023-07-31T03:39:51;98831.63;;;23.07;100.00
7668;BME280;3876;42.204;24.686;2023-07-31T03:42:18;98839.59;;;23.05;100.00
7668;BME280;3876;42.204;24.686;2023-07-31T03:44:46;98845.22;;;23.00;100.00
7668;BME280;3876;42.204;24.686;2023-07-31T03:47:13;98850.59;;;22.89;100.00
7668;BME280;3876;42.204;24.686;2023-07-31T03:49:40;98851.69;;;22.87;100.00
7668;BME280;3876;42.204;24.686;2023-07-31T03:52:07;98854.97;;;22.79;100.00
7668;BME280;3876;42.204;24.686;2023-07-31T03:54:33;98858.28;;;22.81;100.00
7668;BME280;3876;42.204;24.686;2023-07-31T03:57:00;98858.72;;;22.86;100.00
7668;BME280;3876;42.204;24.686;2023-07-31T03:59:27;98861.03;;;22.89;100.00
7668;BME280;3876;42.204;24.686;2023-07-31T04:01:55;98868.22;;;22.87;100.00
7668;BME280;3876;42.204;24.686;2023-07-31T04:04:22;98867.09;;;22.90;100.00
7668;BME280;3876;42.204;24.686;2023-07-31T04:06:48;98872.19;;;22.91;100.00
7668;BME280;3876;42.204;24.686;2023-07-31T04:09:15;98873.72;;;22.94;100.00
7668;BME280;3876;42.204;24.686;2023-07-31T04:11:42;98874.53;;;22.94;100.00
7668;BME280;3876;42.204;24.686;2023-07-31T04:14:09;98874.25;;;22.97;100.00
7668;BME280;3876;42.204;24.686;2023-07-31T04:16:35;98878.25;;;23.01;100.00
7668;BME280;3876;42.204;24.686;2023-07-31T04:19:04;98876.75;;;22.99;100.00
7668;BME280;3876;42.204;24.686;2023-07-31T04:21:30;98877.28;;;22.93;100.00
7668;BME280;3876;42.204;24.686;2023-07-31T04:23:57;98876.16;;;22.86;100.00
7668;BME280;3876;42.204;24.686;2023-07-31T04:26:24;98888.84;;;22.90;100.00
7668;BME280;3876;42.204;24.686;2023-07-31T04:28:51;98885.53;;;22.88;100.00
7668;BME280;3876;42.204;24.686;2023-07-31T04:31:17;98885.25;;;22.82;100.00
7668;BME280;3876;42.204;24.686;2023-07-31T04:33:44;98896.13;;;22.77;100.00
7668;BME280;3876;42.204;24.686;2023-07-31T04:36:12;98898.47;;;22.80;100.00
7668;BME280;3876;42.204;24.686;2023-07-31T04:38:39;98892.97;;;22.83;100.00
7668;BME280;3876;42.204;24.686;2023-07-31T04:41:06;98895.84;;;22.90;100.00
7668;BME280;3876;42.204;24.686;2023-07-31T04:43:33;98890.19;;;22.94;100.00
7668;BME280;3876;42.204;24.686;2023-07-31T04:46:00;98891.88;;;22.95;100.00
7668;BME280;3876;42.204;24.686;2023-07-31T04:48:26;98896.13;;;22.96;100.00
7668;BME280;3876;42.204;24.686;2023-07-31T04:50:53;98881.56;;;22.94;100.00
7668;BME280;3876;42.204;24.686;2023-07-31T04:53:21;98886.53;;;23.07;100.00
7668;BME280;3876;42.204;24.686;2023-07-31T04:55:48;98884.69;;;23.07;100.00
7668;BME280;3876;42.204;24.686;2023-07-31T04:58:15;98889.13;;;23.16;100.00
7668;BME280;3876;42.204;24.686;2023-07-31T05:00:41;98886.09;;;23.21;100.00
7668;BME280;3876;42.204;24.686;2023-07-31T05:03:08;98884.44;;;23.29;100.00
7668;BME280;3876;42.204;24.686;2023-07-31T05:05:36;98883.34;;;23.32;100.00
7668;BME280;3876;42.204;24.686;2023-07-31T05:08:03;98886.63;;;23.34;100.00
7668;BME280;3876;42.204;24.686;2023-07-31T05:10:31;98894.06;;;23.38;100.00
7668;BME280;3876;42.204;24.686;2023-07-31T05:12:58;98891.88;;;23.34;100.00
7668;BME280;3876;42.204;24.686;2023-07-31T05:15:24;98889.97;;;23.36;100.00
7668;BME280;3876;42.204;24.686;2023-07-31T05:17:51;98889.13;;;23.35;100.00
7668;BME280;3876;42.204;24.686;2023-07-31T05:20:18;98892.56;;;23.36;100.00
7668;BME280;3876;42.204;24.686;2023-07-31T05:22:45;98887.75;;;23.41;100.00
7668;BME280;3876;42.204;24.686;2023-07-31T05:25:12;98895.34;;;23.44;100.00
7668;BME280;3876;42.204;24.686;2023-07-31T05:27:40;98897.66;;;23.47;100.00
7668;BME280;3876;42.204;24.686;2023-07-31T05:30:07;98888.72;;;23.49;100.00
7668;BME280;3876;42.204;24.686;2023-07-31T05:32:34;98897.63;;;23.66;100.00
7668;BME280;3876;42.204;24.686;2023-07-31T05:35:01;98902.31;;;23.72;100.00
7668;BME280;3876;42.204;24.686;2023-07-31T05:37:28;98899.81;;;23.80;100.00
7668;BME280;3876;42.204;24.686;2023-07-31T05:39:56;98899.19;;;24.05;100.00
7668;BME280;3876;42.204;24.686;2023-07-31T05:42:23;98909.28;;;24.37;100.00
7668;BME280;3876;42.204;24.686;2023-07-31T05:44:52;98914.00;;;24.61;100.00
7668;BME280;3876;42.204;24.686;2023-07-31T05:47:18;98905.47;;;24.86;100.00
7668;BME280;3876;42.204;24.686;2023-07-31T05:49:45;98908.59;;;25.07;100.00
7668;BME280;3876;42.204;24.686;2023-07-31T05:52:12;98910.72;;;25.22;100.00
7668;BME280;3876;42.204;24.686;2023-07-31T05:54:39;98910.31;;;25.34;100.00
7668;BME280;3876;42.204;24.686;2023-07-31T05:57:06;98911.00;;;25.54;100.00
7668;BME280;3876;42.204;24.686;2023-07-31T05:59:32;98910.06;;;25.81;100.00
7668;BME280;3876;42.204;24.686;2023-07-31T06:02:01;98912.31;;;26.01;100.00
7668;BME280;3876;42.204;24.686;2023-07-31T06:04:27;98909.22;;;26.32;100.00
7668;BME280;3876;42.204;24.686;2023-07-31T06:06:54;98915.09;;;26.68;100.00
7668;BME280;3876;42.204;24.686;2023-07-31T06:09:21;98914.31;;;26.75;96.70
7668;BME280;3876;42.204;24.686;2023-07-31T06:11:48;98921.94;;;26.86;97.38
7668;BME280;3876;42.204;24.686;2023-07-31T06:14:14;98920.97;;;27.11;96.01
7668;BME280;3876;42.204;24.686;2023-07-31T06:16:41;98912.78;;;27.23;94.90
7668;BME280;3876;42.204;24.686;2023-07-31T06:19:10;98902.91;;;27.17;91.83
7668;BME280;3876;42.204;24.686;2023-07-31T06:21:38;98910.13;;;27.14;92.61
7668;BME280;3876;42.204;24.686;2023-07-31T06:24:07;98900.59;;;27.38;93.82
7668;BME280;3876;42.204;24.686;2023-07-31T06:26:34;98901.78;;;27.59;89.82
7668;BME280;3876;42.204;24.686;2023-07-31T06:29:01;98900.59;;;27.70;89.38
7668;BME280;3876;42.204;24.686;2023-07-31T06:31:28;98900.44;;;27.80;88.47
7668;BME280;3876;42.204;24.686;2023-07-31T06:33:55;98899.94;;;27.84;87.83
7668;BME280;3876;42.204;24.686;2023-07-31T06:36:23;98901.75;;;27.76;88.21
7668;BME280;3876;42.204;24.686;2023-07-31T06:38:50;98905.50;;;27.89;88.38
7668;BME280;3876;42.204;24.686;2023-07-31T06:41:16;98912.03;;;28.26;88.86
7668;BME280;3876;42.204;24.686;2023-07-31T06:43:43;98906.00;;;28.56;88.46
7668;BME280;3876;42.204;24.686;2023-07-31T06:46:10;98905.28;;;28.70;84.40
7668;BME280;3876;42.204;24.686;2023-07-31T06:48:37;98903.56;;;28.85;85.34
7668;BME280;3876;42.204;24.686;2023-07-31T06:51:03;98897.03;;;28.96;83.85
7668;BME280;3876;42.204;24.686;2023-07-31T06:53:32;98889.00;;;28.89;82.45
7668;BME280;3876;42.204;24.686;2023-07-31T06:55:58;98895.31;;;29.11;82.71
7668;BME280;3876;42.204;24.686;2023-07-31T06:58:25;98898.19;;;29.24;81.29
7668;BME280;3876;42.204;24.686;2023-07-31T07:00:52;98895.84;;;29.29;82.27
7668;BME280;3876;42.204;24.686;2023-07-31T07:03:19;98894.19;;;29.28;80.74
7668;BME280;3876;42.204;24.686;2023-07-31T07:05:46;98896.69;;;29.22;80.31
7668;BME280;3876;42.204;24.686;2023-07-31T07:08:13;98901.34;;;29.42;81.48
7668;BME280;3876;42.204;24.686;2023-07-31T07:10:41;98889.47;;;29.61;80.56
7668;BME280;3876;42.204;24.686;2023-07-31T07:13:08;98885.31;;;29.81;80.73
7668;BME280;3876;42.204;24.686;2023-07-31T07:15:35;98895.00;;;30.03;77.31
7668;BME280;3876;42.204;24.686;2023-07-31T07:18:02;98895.72;;;29.97;78.37
7668;BME280;3876;42.204;24.686;2023-07-31T07:20:29;98900.28;;;30.03;77.39
7668;BME280;3876;42.204;24.686;2023-07-31T07:22:55;98901.94;;;30.34;79.86
7668;BME280;3876;42.204;24.686;2023-07-31T07:25:23;98895.19;;;30.46;76.35
7668;BME280;3876;42.204;24.686;2023-07-31T07:27:51;98900.84;;;30.43;76.15
7668;BME280;3876;42.204;24.686;2023-07-31T07:30:18;98904.28;;;30.29;73.36
7668;BME280;3876;42.204;24.686;2023-07-31T07:32:45;98896.84;;;30.47;75.20
7668;BME280;3876;42.204;24.686;2023-07-31T07:35:12;98906.13;;;30.43;73.68
7668;BME280;3876;42.204;24.686;2023-07-31T07:37:38;98905.41;;;30.49;72.66
7668;BME280;3876;42.204;24.686;2023-07-31T07:40:06;98903.84;;;30.54;72.40
7668;BME280;3876;42.204;24.686;2023-07-31T07:42:33;98901.47;;;30.45;73.41
7668;BME280;3876;42.204;24.686;2023-07-31T07:45:02;98896.19;;;30.45;74.09
7668;BME280;3876;42.204;24.686;2023-07-31T07:47:28;98903.38;;;30.51;76.82
7668;BME280;3876;42.204;24.686;2023-07-31T07:49:55;98901.53;;;30.66;71.86
7668;BME280;3876;42.204;24.686;2023-07-31T07:52:22;98903.06;;;30.75;73.49
7668;BME280;3876;42.204;24.686;2023-07-31T07:54:49;98903.59;;;30.85;70.96
7668;BME280;3876;42.204;24.686;2023-07-31T07:57:15;98902.72;;;30.99;71.65
7668;BME280;3876;42.204;24.686;2023-07-31T07:59:42;98903.25;;;31.31;69.21
7668;BME280;3876;42.204;24.686;2023-07-31T08:02:10;98902.09;;;31.61;67.77
7668;BME280;3876;42.204;24.686;2023-07-31T08:04:37;98898.69;;;31.95;66.65
7668;BME280;3876;42.204;24.686;2023-07-31T08:07:04;98898.91;;;32.28;65.75
7668;BME280;3876;42.204;24.686;2023-07-31T08:09:31;98899.63;;;32.56;60.87
7668;BME280;3876;42.204;24.686;2023-07-31T08:11:57;98888.44;;;32.67;63.97
7668;BME280;3876;42.204;24.686;2023-07-31T08:14:28;98895.66;;;32.80;61.83
7668;BME280;3876;42.204;24.686;2023-07-31T08:16:55;98894.66;;;32.40;64.69
7668;BME280;3876;42.204;24.686;2023-07-31T08:19:23;98893.59;;;32.28;66.57
7668;BME280;3876;42.204;24.686;2023-07-31T08:21:50;98892.63;;;32.48;67.61
7668;BME280;3876;42.204;24.686;2023-07-31T08:24:16;98878.47;;;32.69;63.48
7668;BME280;3876;42.204;24.686;2023-07-31T08:26:43;98891.28;;;32.59;67.02
7668;BME280;3876;42.204;24.686;2023-07-31T08:29:10;98883.78;;;32.69;64.20
7668;BME280;3876;42.204;24.686;2023-07-31T08:31:37;98884.41;;;32.84;63.84
7668;BME280;3876;42.204;24.686;2023-07-31T08:34:03;98885.63;;;32.75;62.56
7668;BME280;3876;42.204;24.686;2023-07-31T08:36:32;98893.50;;;32.55;60.70
7668;BME280;3876;42.204;24.686;2023-07-31T08:38:59;98883.63;;;32.43;62.04
7668;BME280;3876;42.204;24.686;2023-07-31T08:41:27;98895.19;;;32.29;60.84
7668;BME280;3876;42.204;24.686;2023-07-31T08:43:55;98883.25;;;32.46;63.51
7668;BME280;3876;42.204;24.686;2023-07-31T08:46:21;98890.53;;;32.78;65.39
7668;BME280;3876;42.204;24.686;2023-07-31T08:48:50;98887.31;;;32.89;60.68
7668;BME280;3876;42.204;24.686;2023-07-31T08:51:18;98889.53;;;32.79;62.67
7668;BME280;3876;42.204;24.686;2023-07-31T08:53:47;98891.53;;;32.77;61.42
7668;BME280;3876;42.204;24.686;2023-07-31T08:56:15;98896.28;;;32.95;59.08
7668;BME280;3876;42.204;24.686;2023-07-31T08:58:43;98892.59;;;33.02;59.19
7668;BME280;3876;42.204;24.686;2023-07-31T09:01:10;98893.03;;;33.06;61.95
7668;BME280;3876;42.204;24.686;2023-07-31T09:03:39;98885.25;;;32.91;62.22
7668;BME280;3876;42.204;24.686;2023-07-31T09:06:07;98878.69;;;32.87;60.61
7668;BME280;3876;42.204;24.686;2023-07-31T09:08:35;98879.53;;;33.01;61.05
7668;BME280;3876;42.204;24.686;2023-07-31T09:11:03;98887.34;;;33.28;59.64
7668;BME280;3876;42.204;24.686;2023-07-31T09:13:30;98866.50;;;33.45;63.82
7668;BME280;3876;42.204;24.686;2023-07-31T09:15:58;98879.63;;;33.73;60.63
7668;BME280;3876;42.204;24.686;2023-07-31T09:18:25;98886.34;;;33.89;55.86
7668;BME280;3876;42.204;24.686;2023-07-31T09:21:02;98881.00;;;34.02;54.65
7668;BME280;3876;42.204;24.686;2023-07-31T09:23:40;98878.09;;;34.16;54.22
7668;BME280;3876;42.204;24.686;2023-07-31T09:26:09;98866.44;;;34.04;54.50
7668;BME280;3876;42.204;24.686;2023-07-31T09:28:36;98874.63;;;34.03;54.31
7668;BME280;3876;42.204;24.686;2023-07-31T09:31:03;98876.72;;;33.55;54.17
7668;BME280;3876;42.204;24.686;2023-07-31T09:33:29;98866.94;;;33.29;56.50
7668;BME280;3876;42.204;24.686;2023-07-31T09:35:58;98865.91;;;33.23;54.87
7668;BME280;3876;42.204;24.686;2023-07-31T09:38:26;98856.72;;;33.33;53.84
7668;BME280;3876;42.204;24.686;2023-07-31T09:40:53;98867.34;;;33.33;54.92
7668;BME280;3876;42.204;24.686;2023-07-31T09:43:21;98864.50;;;33.41;55.49
7668;BME280;3876;42.204;24.686;2023-07-31T09:45:56;98857.94;;;33.50;52.62
7668;BME280;3876;42.204;24.686;2023-07-31T09:48:24;98866.50;;;33.52;53.46
7668;BME280;3876;42.204;24.686;2023-07-31T09:50:53;98850.59;;;33.65;54.68
7668;BME280;3876;42.204;24.686;2023-07-31T09:53:28;98859.13;;;33.80;55.01
7668;BME280;3876;42.204;24.686;2023-07-31T09:55:57;98857.53;;;33.79;53.91
7668;BME280;3876;42.204;24.686;2023-07-31T09:58:28;98858.34;;;33.80;57.69
7668;BME280;3876;42.204;24.686;2023-07-31T10:00:57;98848.47;;;33.87;54.22
7668;BME280;3876;42.204;24.686;2023-07-31T10:03:24;98863.38;;;34.07;50.69
7668;BME280;3876;42.204;24.686;2023-07-31T10:05:53;98855.38;;;34.20;53.09
7668;BME280;3876;42.204;24.686;2023-07-31T10:08:24;98854.09;;;34.29;53.93
7668;BME280;3876;42.204;24.686;2023-07-31T10:10:55;98851.22;;;34.38;53.72
7668;BME280;3876;42.204;24.686;2023-07-31T10:13:27;98843.94;;;34.13;49.70
7668;BME280;3876;42.204;24.686;2023-07-31T10:15:59;98840.16;;;34.41;51.69
7668;BME280;3876;42.204;24.686;2023-07-31T10:18:26;98840.50;;;34.51;51.39
7668;BME280;3876;42.204;24.686;2023-07-31T10:20:55;98838.03;;;34.49;50.57
7668;BME280;3876;42.204;24.686;2023-07-31T10:23:23;98836.41;;;34.48;45.80
7668;BME280;3876;42.204;24.686;2023-07-31T10:25:51;98831.31;;;34.47;46.33
7668;BME280;3876;42.204;24.686;2023-07-31T10:28:20;98829.38;;;34.22;46.48
7668;BME280;3876;42.204;24.686;2023-07-31T10:30:49;98830.16;;;34.29;47.16
7668;BME280;3876;42.204;24.686;2023-07-31T10:33:17;98825.03;;;34.35;47.20
7668;BME280;3876;42.204;24.686;2023-07-31T10:35:47;98817.13;;;34.53;51.28
7668;BME280;3876;42.204;24.686;2023-07-31T10:38:13;98811.38;;;34.62;48.87
7668;BME280;3876;42.204;24.686;2023-07-31T10:40:40;98807.84;;;34.68;48.75
7668;BME280;3876;42.204;24.686;2023-07-31T10:43:07;98801.63;;;34.81;45.86
7668;BME280;3876;42.204;24.686;2023-07-31T10:45:37;98807.63;;;34.76;47.93
7668;BME280;3876;42.204;24.686;2023-07-31T10:48:07;98801.72;;;34.68;46.15
7668;BME280;3876;42.204;24.686;2023-07-31T10:50:47;98787.38;;;34.31;49.65
7668;BME280;3876;42.204;24.686;2023-07-31T10:53:23;98788.63;;;34.22;50.51
7668;BME280;3876;42.204;24.686;2023-07-31T10:55:50;98787.50;;;33.98;52.48
7668;BME280;3876;42.204;24.686;2023-07-31T10:58:19;98794.16;;;33.43;52.83
7668;BME280;3876;42.204;24.686;2023-07-31T11:00:46;98805.81;;;33.09;53.05
7668;BME280;3876;42.204;24.686;2023-07-31T11:03:16;98812.84;;;32.56;55.13
7668;BME280;3876;42.204;24.686;2023-07-31T11:05:45;98816.03;;;32.32;54.90
7668;BME280;3876;42.204;24.686;2023-07-31T11:08:12;98812.06;;;31.74;57.53
7668;BME280;3876;42.204;24.686;2023-07-31T11:10:39;98804.81;;;31.55;58.78
7668;BME280;3876;42.204;24.686;2023-07-31T11:13:06;98801.59;;;31.59;59.17
7668;BME280;3876;42.204;24.686;2023-07-31T11:15:33;98802.03;;;31.63;60.62
7668;BME280;3876;42.204;24.686;2023-07-31T11:18:00;98811.56;;;31.57;62.90
7668;BME280;3876;42.204;24.686;2023-07-31T11:20:31;98806.25;;;31.57;62.41
7668;BME280;3876;42.204;24.686;2023-07-31T11:22:59;98800.22;;;31.42;64.16
7668;BME280;3876;42.204;24.686;2023-07-31T11:25:28;98805.25;;;31.31;63.09
7668;BME280;3876;42.204;24.686;2023-07-31T11:27:55;98790.75;;;31.27;64.23
7668;BME280;3876;42.204;24.686;2023-07-31T11:30:22;98794.69;;;31.37;59.61
7668;BME280;3876;42.204;24.686;2023-07-31T11:32:49;98790.31;;;31.51;60.03
7668;BME280;3876;42.204;24.686;2023-07-31T11:35:16;98790.88;;;31.18;58.15
7668;BME280;3876;42.204;24.686;2023-07-31T11:37:45;98798.59;;;31.13;60.06
7668;BME280;3876;42.204;24.686;2023-07-31T11:40:12;98790.78;;;31.05;58.68
7668;BME280;3876;42.204;24.686;2023-07-31T11:42:38;98787.09;;;31.28;57.62
7668;BME280;3876;42.204;24.686;2023-07-31T11:45:07;98774.84;;;31.54;57.18
7668;BME280;3876;42.204;24.686;2023-07-31T11:47:34;98783.88;;;31.60;56.56
7668;BME280;3876;42.204;24.686;2023-07-31T11:50:02;98775.94;;;31.60;56.10
7668;BME280;3876;42.204;24.686;2023-07-31T11:52:32;98786.13;;;31.63;56.46
7668;BME280;3876;42.204;24.686;2023-07-31T11:55:02;98783.53;;;31.69;54.68
7668;BME280;3876;42.204;24.686;2023-07-31T11:57:29;98774.38;;;31.79;54.42
7668;BME280;3876;42.204;24.686;2023-07-31T11:59:57;98779.94;;;31.90;54.12
7668;BME280;3876;42.204;24.686;2023-07-31T12:02:24;98768.91;;;31.87;54.19
7668;BME280;3876;42.204;24.686;2023-07-31T12:04:51;98776.44;;;31.83;53.98
7668;BME280;3876;42.204;24.686;2023-07-31T12:07:18;98771.59;;;31.93;56.25
7668;BME280;3876;42.204;24.686;2023-07-31T12:09:52;98766.00;;;32.22;54.39
7668;BME280;3876;42.204;24.686;2023-07-31T12:12:25;98764.25;;;32.56;51.86
7668;BME280;3876;42.204;24.686;2023-07-31T12:14:52;98763.91;;;32.65;51.42
7668;BME280;3876;42.204;24.686;2023-07-31T12:17:20;98743.00;;;32.43;50.95
7668;BME280;3876;42.204;24.686;2023-07-31T12:19:48;98755.25;;;32.37;51.64
7668;BME280;3876;42.204;24.686;2023-07-31T12:22:15;98752.88;;;32.62;48.70
7668;BME280;3876;42.204;24.686;2023-07-31T12:24:43;98748.16;;;32.77;50.06
7668;BME280;3876;42.204;24.686;2023-07-31T12:27:11;98732.66;;;32.87;49.42
7668;BME280;3876;42.204;24.686;2023-07-31T12:29:41;98734.91;;;32.77;47.61
7668;BME280;3876;42.204;24.686;2023-07-31T12:32:20;98750.03;;;32.63;48.03
7668;BME280;3876;42.204;24.686;2023-07-31T12:34:47;98743.69;;;32.71;46.87
7668;BME280;3876;42.204;24.686;2023-07-31T12:37:14;98733.47;;;32.94;47.89
7668;BME280;3876;42.204;24.686;2023-07-31T12:39:41;98726.75;;;33.18;46.21
7668;BME280;3876;42.204;24.686;2023-07-31T12:42:08;98720.38;;;33.32;45.94
7668;BME280;3876;42.204;24.686;2023-07-31T12:44:35;98730.38;;;33.37;46.27
7668;BME280;3876;42.204;24.686;2023-07-31T12:47:03;98723.41;;;33.49;47.62
7668;BME280;3876;42.204;24.686;2023-07-31T12:49:30;98733.19;;;33.68;45.58
7668;BME280;3876;42.204;24.686;2023-07-31T12:51:57;98729.22;;;33.84;44.38
7668;BME280;3876;42.204;24.686;2023-07-31T12:54:24;98733.50;;;33.91;43.70
7668;BME280;3876;42.204;24.686;2023-07-31T12:56:51;98729.47;;;33.75;44.54
7668;BME280;3876;42.204;24.686;2023-07-31T12:59:18;98732.16;;;33.69;44.05
7668;BME280;3876;42.204;24.686;2023-07-31T13:01:44;98728.31;;;33.45;47.64
7668;BME280;3876;42.204;24.686;2023-07-31T13:04:12;98730.78;;;33.47;47.73
7668;BME280;3876;42.204;24.686;2023-07-31T13:06:40;98730.75;;;33.53;46.48
7668;BME280;3876;42.204;24.686;2023-07-31T13:09:06;98721.75;;;33.48;48.73